Kennydale, Washington
Current Conditions -  °F | °C
As of 7:53 PM on Saturday 24 Jan 2015 (Local Time) from KRNT Reporting Station
Overcast Overcast  
Wind Chill: 57°   Ceiling: 2800
Heat Index: 57°   Visibility: 10mi
Dew Point: 54°   Wind: 5mph
Humidity: 89%   Direction: NA
Pressure: 30.23"   Gusts: NA
Location:  47.5152°N, 122.184°W
Report Text: KRNT 250353Z AUTO VRB04KT 10SM OVC028 14/12 A3023 RMK AO2 SLP240 T01390122
Loading
Personal Weather Stations






























Interactive Weather Map New forecast layout! Learn more

10-Day Weather Forecast

Advertisements
Track Severe Weather on mobile